createdAt,value
2022-09-26T00:01:14.063Z,86.63
2022-09-26T00:03:45.977Z,85.89
2022-09-26T00:06:12.697Z,86.20
2022-09-26T00:08:39.471Z,86.21
2022-09-26T00:11:07.799Z,86.37
2022-09-26T00:13:35.891Z,86.12
2022-09-26T00:16:02.545Z,86.43
2022-09-26T00:18:29.141Z,86.18
2022-09-26T00:21:03.352Z,86.55
2022-09-26T00:23:29.951Z,86.08
2022-09-26T00:25:56.938Z,86.45
2022-09-26T00:28:23.698Z,86.22
2022-09-26T00:30:50.443Z,87.00
2022-09-26T00:33:17.113Z,86.35
2022-09-26T00:35:53.437Z,86.50
2022-09-26T00:38:20.103Z,85.78
2022-09-26T00:40:47.038Z,86.01
2022-09-26T00:43:33.366Z,86.23
2022-09-26T00:46:20.234Z,86.09
2022-09-26T00:48:49.204Z,86.21
2022-09-26T00:51:15.919Z,86.24
2022-09-26T00:53:49.090Z,86.22
2022-09-26T00:56:19.575Z,86.52
2022-09-26T00:59:13.898Z,86.72
2022-09-26T01:02:05.709Z,86.80
2022-09-26T01:04:34.343Z,86.91
2022-09-26T01:07:02.006Z,86.30
2022-09-26T01:09:29.074Z,87.02
2022-09-26T01:11:55.692Z,87.18
2022-09-26T01:14:22.334Z,86.74
2022-09-26T01:16:49.356Z,86.90
2022-09-26T01:19:16.095Z,87.29
2022-09-26T01:22:16.552Z,87.08
2022-09-26T01:25:40.194Z,87.03
2022-09-26T01:28:39.509Z,86.73
2022-09-26T01:31:21.189Z,86.71
2022-09-26T01:34:07.636Z,86.86
2022-09-26T01:37:08.728Z,86.76
2022-09-26T01:40:10.160Z,86.55
2022-09-26T01:42:42.834Z,87.03
2022-09-26T01:45:19.885Z,86.93
2022-09-26T01:47:50.493Z,87.14
2022-09-26T01:50:39.639Z,86.91
2022-09-26T01:53:14.255Z,86.58
2022-09-26T01:55:42.808Z,86.82
2022-09-26T01:58:28.294Z,86.83
2022-09-26T02:00:54.957Z,86.58
2022-09-26T02:03:22.620Z,86.60
2022-09-26T02:05:52.831Z,86.57
2022-09-26T02:08:19.289Z,86.65
2022-09-26T02:10:49.585Z,86.73
2022-09-26T02:13:18.502Z,86.31
2022-09-26T02:15:47.659Z,86.70
2022-09-26T02:18:21.761Z,86.82
2022-09-26T02:20:56.297Z,86.43
2022-09-26T02:23:22.911Z,86.76
2022-09-26T02:25:49.472Z,86.92
2022-09-26T02:28:16.246Z,86.65
2022-09-26T02:31:20.542Z,86.40
2022-09-26T02:33:49.374Z,86.37
2022-09-26T02:36:16.218Z,86.47
2022-09-26T02:38:42.845Z,86.50
2022-09-26T02:41:22.566Z,86.79
2022-09-26T02:43:58.020Z,86.95
2022-09-26T02:46:30.585Z,86.89
2022-09-26T02:49:03.033Z,86.70
2022-09-26T02:51:59.537Z,86.82
2022-09-26T02:54:50.115Z,86.84
2022-09-26T02:57:41.617Z,86.77
2022-09-26T03:00:11.259Z,86.91
2022-09-26T03:03:13.975Z,86.59
2022-09-26T03:05:40.791Z,86.59
2022-09-26T03:08:13.803Z,87.04
2022-09-26T03:10:40.502Z,86.77
2022-09-26T03:13:09.066Z,86.83
2022-09-26T03:15:35.629Z,86.89
2022-09-26T03:18:02.381Z,86.93
2022-09-26T03:20:28.947Z,86.45
2022-09-26T03:22:55.917Z,86.70
2022-09-26T03:25:24.112Z,86.40
2022-09-26T03:27:51.011Z,86.55
2022-09-26T03:30:17.987Z,86.40
2022-09-26T03:32:44.581Z,86.43
2022-09-26T03:35:11.182Z,86.68
2022-09-26T03:37:37.952Z,86.75
2022-09-26T03:40:05.294Z,86.63
2022-09-26T03:42:33.565Z,86.88
2022-09-26T03:45:01.059Z,86.81
2022-09-26T03:47:27.776Z,87.16
2022-09-26T03:49:54.640Z,87.29
2022-09-26T03:52:21.855Z,87.08
2022-09-26T03:54:48.512Z,87.19
2022-09-26T03:57:15.443Z,87.16
2022-09-26T03:59:42.212Z,87.40
2022-09-26T04:02:08.988Z,87.46
2022-09-26T04:04:35.844Z,87.34
2022-09-26T04:07:02.400Z,87.28
2022-09-26T04:09:29.087Z,87.46
2022-09-26T04:11:55.648Z,87.46
2022-09-26T04:14:22.266Z,87.55
2022-09-26T04:16:48.925Z,87.45
2022-09-26T04:19:15.823Z,87.05
2022-09-26T04:21:42.555Z,87.01
2022-09-26T04:24:14.446Z,87.45
2022-09-26T04:26:44.531Z,87.43
2022-09-26T04:29:11.310Z,86.90
2022-09-26T04:31:38.044Z,86.95
2022-09-26T04:34:05.219Z,87.01
2022-09-26T04:36:32.004Z,87.08
2022-09-26T04:39:00.620Z,87.01
2022-09-26T04:41:28.442Z,86.99
2022-09-26T04:43:55.479Z,87.00
2022-09-26T04:46:28.213Z,87.10
2022-09-26T04:48:57.883Z,87.44
2022-09-26T04:51:25.149Z,87.46
2022-09-26T04:53:51.850Z,87.79
2022-09-26T04:56:19.203Z,87.58
2022-09-26T04:58:46.012Z,87.69
2022-09-26T05:01:22.719Z,87.54
2022-09-26T05:03:49.590Z,87.64
2022-09-26T05:06:16.298Z,87.72
2022-09-26T05:08:46.836Z,87.56
2022-09-26T05:11:14.403Z,87.41
2022-09-26T05:13:40.989Z,87.55
2022-09-26T05:16:08.900Z,87.58
2022-09-26T05:18:36.070Z,87.51
2022-09-26T05:21:03.742Z,87.26
2022-09-26T05:23:48.933Z,87.34
2022-09-26T05:26:37.857Z,87.39
2022-09-26T05:29:08.774Z,87.69
2022-09-26T05:31:39.428Z,87.71
2022-09-26T05:34:13.150Z,87.63
2022-09-26T05:36:42.975Z,87.46
2022-09-26T05:39:29.550Z,87.76
2022-09-26T05:41:56.856Z,87.70
2022-09-26T05:44:23.703Z,87.67
2022-09-26T05:46:52.002Z,87.24
2022-09-26T05:49:18.675Z,87.53
2022-09-26T05:51:45.312Z,87.59
2022-09-26T05:54:11.986Z,87.55
2022-09-26T05:56:54.787Z,87.43
2022-09-26T05:59:21.465Z,87.65
2022-09-26T06:01:48.262Z,87.87
2022-09-26T06:04:14.870Z,87.58
2022-09-26T06:06:42.451Z,86.93
2022-09-26T06:09:09.135Z,87.50
2022-09-26T06:11:35.804Z,87.40
2022-09-26T06:14:02.895Z,87.63
2022-09-26T06:16:29.549Z,87.88
2022-09-26T06:18:56.360Z,87.65
2022-09-26T06:21:23.305Z,87.53
2022-09-26T06:23:49.893Z,87.70
2022-09-26T06:26:20.355Z,87.49
2022-09-26T06:28:47.262Z,87.74
2022-09-26T06:31:16.876Z,87.54
2022-09-26T06:33:43.540Z,87.31
2022-09-26T06:36:11.395Z,87.84
2022-09-26T06:38:38.441Z,87.47
2022-09-26T06:41:05.368Z,87.51
2022-09-26T06:43:32.024Z,87.68
2022-09-26T06:45:58.581Z,87.78
2022-09-26T06:48:25.488Z,87.91
2022-09-26T06:50:52.978Z,87.75
2022-09-26T06:53:19.746Z,87.92
2022-09-26T06:55:46.315Z,87.24
2022-09-26T06:58:12.913Z,87.47
2022-09-26T07:00:40.893Z,87.32
2022-09-26T07:03:08.353Z,86.67
2022-09-26T07:05:35.152Z,86.91
2022-09-26T07:08:02.515Z,87.02
2022-09-26T07:10:30.451Z,86.82
2022-09-26T07:13:03.035Z,86.82
2022-09-26T07:15:33.103Z,86.58
2022-09-26T07:18:02.747Z,86.51
2022-09-26T07:20:35.967Z,86.25
2022-09-26T07:23:03.465Z,86.58
2022-09-26T07:25:31.856Z,86.51
2022-09-26T07:27:58.698Z,86.62
2022-09-26T07:30:25.507Z,86.88
2022-09-26T07:32:52.106Z,87.04
2022-09-26T07:35:18.687Z,86.87
2022-09-26T07:37:45.292Z,86.87
2022-09-26T07:40:12.119Z,86.76
2022-09-26T07:42:39.007Z,86.61
2022-09-26T07:45:29.041Z,86.68
2022-09-26T07:48:11.476Z,86.47
2022-09-26T07:50:38.136Z,86.53
2022-09-26T07:53:04.737Z,86.71
2022-09-26T07:55:31.292Z,86.68
2022-09-26T07:58:07.153Z,86.69
2022-09-26T08:00:33.786Z,86.71
2022-09-26T08:03:00.960Z,86.19
2022-09-26T08:05:27.662Z,86.02
2022-09-26T08:07:54.285Z,85.96
2022-09-26T08:10:22.507Z,85.87
2022-09-26T08:12:49.177Z,85.62
2022-09-26T08:15:16.086Z,84.97
2022-09-26T08:17:43.410Z,85.39
2022-09-26T08:20:10.245Z,85.56
2022-09-26T08:22:36.838Z,85.71
2022-09-26T08:25:04.257Z,85.78
2022-09-26T08:27:34.195Z,85.61
2022-09-26T08:30:01.177Z,85.61
2022-09-26T08:32:27.843Z,85.17
2022-09-26T08:34:54.402Z,85.30
2022-09-26T08:37:21.108Z,85.08
2022-09-26T08:39:48.357Z,84.73
2022-09-26T08:42:33.999Z,84.40
2022-09-26T08:45:47.785Z,84.45
2022-09-26T08:48:37.107Z,84.71
2022-09-26T08:51:13.846Z,85.12
2022-09-26T08:53:50.700Z,85.09
2022-09-26T08:56:22.815Z,85.34
2022-09-26T08:58:52.438Z,84.83
2022-09-26T09:01:28.301Z,84.52
2022-09-26T09:03:58.748Z,84.19
2022-09-26T09:06:26.810Z,83.83
2022-09-26T09:08:55.364Z,81.99
2022-09-26T09:11:31.063Z,81.59
2022-09-26T09:14:07.584Z,81.63
2022-09-26T09:16:53.343Z,81.65
2022-09-26T09:19:29.053Z,81.31
2022-09-26T09:22:16.622Z,80.03
2022-09-26T09:25:11.010Z,79.28
2022-09-26T09:28:05.512Z,78.09
2022-09-26T09:30:57.363Z,78.09
2022-09-26T09:33:32.277Z,77.24
2022-09-26T09:39:40.818Z,76.95
2022-09-26T09:42:13.020Z,75.44
2022-09-26T09:45:06.951Z,75.71
2022-09-26T09:47:36.682Z,74.75
2022-09-26T09:50:11.955Z,74.22
2022-09-26T09:52:41.311Z,74.76
2022-09-26T09:55:35.664Z,74.54
2022-09-26T09:58:20.596Z,73.88
2022-09-26T10:01:09.947Z,74.23
2022-09-26T10:03:38.500Z,74.53
2022-09-26T10:06:05.247Z,73.80
2022-09-26T10:08:33.971Z,74.10
2022-09-26T10:11:27.437Z,74.62
2022-09-26T10:13:55.428Z,74.32
2022-09-26T10:16:22.223Z,73.34
2022-09-26T10:19:03.512Z,72.67
2022-09-26T10:21:35.444Z,73.06
2022-09-26T10:24:03.737Z,73.16
2022-09-26T10:26:37.229Z,72.85
2022-09-26T10:29:25.034Z,70.74
2022-09-26T10:32:00.353Z,70.58
2022-09-26T10:34:28.627Z,71.85
2022-09-26T10:36:56.036Z,73.07
2022-09-26T10:39:46.258Z,72.40
2022-09-26T10:42:20.619Z,74.70
2022-09-26T10:44:48.536Z,71.58
2022-09-26T10:47:16.834Z,71.95
2022-09-26T10:49:53.628Z,72.29
2022-09-26T10:52:30.123Z,71.59
2022-09-26T10:55:15.230Z,69.62
2022-09-26T10:58:12.992Z,69.22
2022-09-26T11:00:44.112Z,69.75
2022-09-26T11:03:15.094Z,70.38
2022-09-26T11:05:57.435Z,70.22
2022-09-26T11:08:27.668Z,69.03
2022-09-26T11:10:54.967Z,68.78
2022-09-26T11:13:30.095Z,68.10
2022-09-26T11:16:01.487Z,68.91
2022-09-26T11:18:53.763Z,68.11
2022-09-26T11:21:28.779Z,67.00
2022-09-26T11:24:11.746Z,67.65
2022-09-26T11:26:56.511Z,66.75
2022-09-26T11:29:55.997Z,66.12
2022-09-26T11:32:33.623Z,67.63
2022-09-26T11:35:03.729Z,67.42
2022-09-26T11:37:36.565Z,67.69
2022-09-26T11:40:28.047Z,67.48
2022-09-26T11:43:00.380Z,68.94
2022-09-26T11:45:40.846Z,69.32
2022-09-26T11:48:30.308Z,69.13
2022-09-26T11:51:12.427Z,69.04
2022-09-26T11:54:06.748Z,69.37
2022-09-26T11:57:08.924Z,69.92
2022-09-26T11:59:44.506Z,70.12
2022-09-26T12:02:33.404Z,70.52
2022-09-26T12:05:38.221Z,70.08
2022-09-26T12:08:40.670Z,69.68
2022-09-26T12:11:43.221Z,67.57
2022-09-26T12:14:18.757Z,67.43
2022-09-26T12:17:01.408Z,66.71
2022-09-26T12:19:32.097Z,67.39
2022-09-26T12:22:30.079Z,67.25
2022-09-26T12:25:07.733Z,66.72
2022-09-26T12:27:36.130Z,66.52
2022-09-26T12:30:17.268Z,67.75
2022-09-26T12:33:06.293Z,67.66
2022-09-26T12:35:48.018Z,67.97
2022-09-26T12:38:28.385Z,67.78
2022-09-26T12:41:26.090Z,67.55
2022-09-26T12:44:20.871Z,67.73
2022-09-26T12:46:59.916Z,67.59
2022-09-26T12:49:58.492Z,68.05
2022-09-26T12:52:56.197Z,67.66
2022-09-26T12:55:47.689Z,67.11
2022-09-26T12:58:29.620Z,64.88
2022-09-26T13:01:05.665Z,64.80
2022-09-26T13:04:01.158Z,65.69
2022-09-26T13:06:37.081Z,64.98
2022-09-26T13:09:36.078Z,65.28
2022-09-26T13:12:05.639Z,65.51
2022-09-26T13:14:51.805Z,65.14
2022-09-26T13:17:25.259Z,65.27
2022-09-26T13:20:13.625Z,64.12
2022-09-26T13:23:12.293Z,64.66
2022-09-26T13:25:50.370Z,64.64
2022-09-26T13:28:17.713Z,64.36
2022-09-26T13:31:00.105Z,64.15
2022-09-26T13:33:39.693Z,63.76
2022-09-26T13:36:08.077Z,63.78
2022-09-26T13:38:41.078Z,64.03
2022-09-26T13:41:28.658Z,65.71
2022-09-26T13:44:06.912Z,65.35
2022-09-26T13:47:12.440Z,66.18
2022-09-26T13:50:01.496Z,66.31
2022-09-26T13:52:57.821Z,65.97
2022-09-26T13:55:26.422Z,65.52
2022-09-26T13:58:00.279Z,66.12
2022-09-26T14:00:38.242Z,65.63
2022-09-26T14:03:15.632Z,65.73
2022-09-26T14:05:42.183Z,66.87
2022-09-26T14:08:42.685Z,66.52
2022-09-26T14:11:24.555Z,67.21
2022-09-26T14:14:19.385Z,66.50
2022-09-26T14:16:46.949Z,65.47
2022-09-26T14:19:15.061Z,65.48
2022-09-26T14:22:02.499Z,63.53
2022-09-26T14:24:30.800Z,65.07
2022-09-26T14:27:02.305Z,65.59
2022-09-26T14:29:29.349Z,66.13
2022-09-26T14:32:09.827Z,67.37
2022-09-26T14:34:36.440Z,66.87
2022-09-26T14:37:04.176Z,66.31
2022-09-26T14:39:33.314Z,65.55
2022-09-26T14:42:10.043Z,65.21
2022-09-26T14:44:37.512Z,64.97
2022-09-26T14:47:05.623Z,65.73
2022-09-26T14:49:32.483Z,65.68
2022-09-26T14:52:00.653Z,65.99
2022-09-26T14:54:41.558Z,66.38
2022-09-26T14:57:21.122Z,66.60
2022-09-26T14:59:48.019Z,67.65
2022-09-26T15:02:14.590Z,67.83
2022-09-26T15:04:42.154Z,68.32
2022-09-26T15:07:18.414Z,68.82
2022-09-26T15:10:08.999Z,68.74
2022-09-26T15:12:44.277Z,69.08
2022-09-26T15:15:32.629Z,69.65
2022-09-26T15:18:08.456Z,69.58
2022-09-26T15:20:40.032Z,69.86
2022-09-26T15:23:27.688Z,70.08
2022-09-26T15:25:56.349Z,69.83
2022-09-26T15:28:24.466Z,70.54
2022-09-26T15:31:22.174Z,70.33
2022-09-26T15:33:54.954Z,69.78
2022-09-26T15:36:21.608Z,70.16
2022-09-26T15:38:49.272Z,69.99
2022-09-26T15:41:37.370Z,69.93
2022-09-26T15:44:16.241Z,70.51
2022-09-26T15:46:42.996Z,70.44
2022-09-26T15:49:15.469Z,69.86
2022-09-26T15:51:42.077Z,70.44
2022-09-26T15:54:16.070Z,70.57
2022-09-26T15:56:47.389Z,70.59
2022-09-26T15:59:32.327Z,70.47
2022-09-26T16:02:22.815Z,71.38
2022-09-26T16:04:51.034Z,71.67
2022-09-26T16:07:28.338Z,71.92
2022-09-26T16:09:56.262Z,72.35
2022-09-26T16:12:23.917Z,71.96
2022-09-26T16:15:03.986Z,72.15
2022-09-26T16:17:49.206Z,72.48
2022-09-26T16:20:16.084Z,72.48
2022-09-26T16:22:46.210Z,72.76
2022-09-26T16:25:15.761Z,72.56
2022-09-26T16:27:42.507Z,72.98
2022-09-26T16:30:23.635Z,73.11
2022-09-26T16:32:50.957Z,72.55
2022-09-26T16:35:19.664Z,73.20
2022-09-26T16:38:42.299Z,73.48
2022-09-26T16:44:27.451Z,74.44
2022-09-26T16:46:55.884Z,75.11
2022-09-26T16:49:48.296Z,75.47
2022-09-26T16:52:32.830Z,75.77
2022-09-26T16:55:00.910Z,75.92
2022-09-26T16:57:31.660Z,76.61
2022-09-26T17:00:20.122Z,76.68
2022-09-26T17:02:46.979Z,76.61
2022-09-26T17:05:16.836Z,77.09
2022-09-26T17:07:43.435Z,77.37
2022-09-26T17:10:10.072Z,77.35
2022-09-26T17:12:36.956Z,77.79
2022-09-26T17:15:04.776Z,78.14
2022-09-26T17:17:31.356Z,78.19
2022-09-26T17:19:59.810Z,78.15
2022-09-26T17:22:26.933Z,78.37
2022-09-26T17:24:53.722Z,78.07
2022-09-26T17:27:29.530Z,78.08
2022-09-26T17:29:59.623Z,77.98
2022-09-26T17:32:30.653Z,77.95
2022-09-26T17:34:59.468Z,77.69
2022-09-26T17:37:26.402Z,78.08
2022-09-26T17:39:54.007Z,78.62
2022-09-26T17:42:21.358Z,78.74
2022-09-26T17:44:48.459Z,78.77
2022-09-26T17:47:18.472Z,78.61
2022-09-26T17:49:48.776Z,78.38
2022-09-26T17:52:29.176Z,78.55
2022-09-26T17:54:57.507Z,79.06
2022-09-26T17:57:27.900Z,78.65
2022-09-26T17:59:55.406Z,78.92
2022-09-26T18:02:33.120Z,79.28
2022-09-26T18:05:03.288Z,79.57
2022-09-26T18:07:38.480Z,79.57
2022-09-26T18:10:07.352Z,80.04
2022-09-26T18:12:34.744Z,80.58
2022-09-26T18:15:03.434Z,80.04
2022-09-26T18:17:30.390Z,80.17
2022-09-26T18:19:56.959Z,80.13
2022-09-26T18:22:27.621Z,80.04
2022-09-26T18:24:59.131Z,80.98
2022-09-26T18:27:25.692Z,80.46
2022-09-26T18:29:52.318Z,81.52
2022-09-26T18:32:27.282Z,81.25
2022-09-26T18:34:53.951Z,81.68
2022-09-26T18:37:20.531Z,81.84
2022-09-26T18:39:50.836Z,82.23
2022-09-26T18:42:22.765Z,82.67
2022-09-26T18:44:50.175Z,81.84
2022-09-26T18:47:16.987Z,81.55
2022-09-26T18:49:46.584Z,81.95
2022-09-26T18:52:15.389Z,82.07
2022-09-26T18:54:44.670Z,82.29
2022-09-26T18:57:30.299Z,81.91
2022-09-26T18:59:57.627Z,82.65
2022-09-26T19:02:26.712Z,82.56
2022-09-26T19:04:53.809Z,82.90
2022-09-26T19:07:21.661Z,83.84
2022-09-26T19:09:48.458Z,83.80
2022-09-26T19:12:16.394Z,84.25
2022-09-26T19:14:53.024Z,83.88
2022-09-26T19:17:19.641Z,83.61
2022-09-26T19:19:46.230Z,83.50
2022-09-26T19:22:14.402Z,82.90
2022-09-26T19:24:54.425Z,83.14
2022-09-26T19:27:45.771Z,83.02
2022-09-26T19:30:21.395Z,82.61
2022-09-26T19:32:49.518Z,82.43
2022-09-26T19:35:31.795Z,82.93
2022-09-26T19:37:59.146Z,82.88
2022-09-26T19:40:26.073Z,83.13
2022-09-26T19:42:52.930Z,83.52
2022-09-26T19:45:19.655Z,84.31
2022-09-26T19:47:47.955Z,84.87
2022-09-26T19:50:21.720Z,84.21
2022-09-26T19:52:49.086Z,84.03
2022-09-26T19:55:17.489Z,83.77
2022-09-26T19:57:44.312Z,83.74
2022-09-26T20:00:11.921Z,83.13
2022-09-26T20:02:38.699Z,83.81
2022-09-26T20:05:26.058Z,84.05
2022-09-26T20:07:52.864Z,83.83
2022-09-26T20:10:21.258Z,83.87
2022-09-26T20:12:48.671Z,83.75
2022-09-26T20:15:16.033Z,83.81
2022-09-26T20:17:44.228Z,83.96
2022-09-26T20:20:22.375Z,83.72
2022-09-26T20:22:51.049Z,83.49
2022-09-26T20:25:26.411Z,83.61
2022-09-26T20:27:53.532Z,83.43
2022-09-26T20:30:38.815Z,83.94
2022-09-26T20:33:06.125Z,83.82
2022-09-26T20:35:35.648Z,83.52
2022-09-26T20:38:04.152Z,84.08
2022-09-26T20:40:30.812Z,83.87
2022-09-26T20:42:59.594Z,84.01
2022-09-26T20:45:29.876Z,83.64
2022-09-26T20:47:59.369Z,83.54
2022-09-26T20:50:27.762Z,83.75
2022-09-26T20:52:57.236Z,83.95
2022-09-26T20:55:24.016Z,84.16
2022-09-26T20:57:50.873Z,84.23
2022-09-26T21:00:19.713Z,84.76
2022-09-26T21:02:57.209Z,84.89
2022-09-26T21:05:25.321Z,84.88
2022-09-26T21:07:52.168Z,84.73
2022-09-26T21:10:22.521Z,85.10
2022-09-26T21:12:49.357Z,85.06
2022-09-26T21:15:16.065Z,85.00
2022-09-26T21:17:42.661Z,85.50
2022-09-26T21:20:23.368Z,85.70
2022-09-26T21:22:50.551Z,86.20
2022-09-26T21:25:18.272Z,86.18
2022-09-26T21:27:45.839Z,86.22
2022-09-26T21:30:14.752Z,86.76
2022-09-26T21:32:48.892Z,86.51
2022-09-26T21:35:15.989Z,86.82
2022-09-26T21:37:43.087Z,86.46
2022-09-26T21:40:09.819Z,86.48
2022-09-26T21:42:37.601Z,86.83
2022-09-26T21:45:06.312Z,86.58
2022-09-26T21:47:33.281Z,86.26
2022-09-26T21:50:00.282Z,86.23
2022-09-26T21:52:30.987Z,86.18
2022-09-26T21:54:57.853Z,86.21
2022-09-26T21:57:27.617Z,85.99
2022-09-26T21:59:54.937Z,86.04
2022-09-26T22:02:21.656Z,85.58
2022-09-26T22:04:48.305Z,85.86
2022-09-26T22:07:14.915Z,85.15
2022-09-26T22:09:42.248Z,85.56
2022-09-26T22:12:08.840Z,85.44
2022-09-26T22:14:35.416Z,85.46
2022-09-26T22:17:02.039Z,84.83
2022-09-26T22:19:33.291Z,84.91
2022-09-26T22:22:00.763Z,84.84
2022-09-26T22:24:27.357Z,85.03
2022-09-26T22:26:53.925Z,84.73
2022-09-26T22:29:37.847Z,84.09
2022-09-26T22:32:04.688Z,84.43
2022-09-26T22:34:32.715Z,84.32
2022-09-26T22:36:59.394Z,84.50
2022-09-26T22:39:25.959Z,84.92
2022-09-26T22:41:52.837Z,84.98
2022-09-26T22:44:19.787Z,84.93
2022-09-26T22:46:46.377Z,84.87
2022-09-26T22:49:13.037Z,84.78
2022-09-26T22:51:39.651Z,84.88
2022-09-26T22:54:06.242Z,85.07
2022-09-26T22:56:32.802Z,85.12
2022-09-26T22:58:59.599Z,85.20
2022-09-26T23:01:30.047Z,85.34
2022-09-26T23:04:00.477Z,86.18
2022-09-26T23:06:27.213Z,86.41
2022-09-26T23:08:54.590Z,86.05
2022-09-26T23:11:21.965Z,85.67
2022-09-26T23:13:50.235Z,85.55
2022-09-26T23:16:18.055Z,85.65
2022-09-26T23:18:44.904Z,86.15
2022-09-26T23:21:21.596Z,86.29
2022-09-26T23:23:49.970Z,86.32
2022-09-26T23:26:23.723Z,86.60
2022-09-26T23:28:50.765Z,86.72
2022-09-26T23:31:17.526Z,86.71
2022-09-26T23:33:44.361Z,85.97
2022-09-26T23:36:10.983Z,86.20
2022-09-26T23:38:37.802Z,86.10
2022-09-26T23:41:05.816Z,86.15
2022-09-26T23:43:32.710Z,86.38
2022-09-26T23:45:59.389Z,86.51
2022-09-26T23:48:26.113Z,86.66
2022-09-26T23:50:52.762Z,86.78
2022-09-26T23:53:19.322Z,87.06
2022-09-26T23:55:45.934Z,87.05
2022-09-26T23:58:12.708Z,87.31
